createdAt,value
2022-12-24T00:01:59.264Z,23.40
2022-12-24T00:06:05.380Z,24.85
2022-12-24T00:10:07.538Z,23.52
2022-12-24T00:14:09.018Z,26.20
2022-12-24T00:18:10.497Z,22.88
2022-12-24T00:22:11.967Z,19.73
2022-12-24T00:26:14.401Z,20.70
2022-12-24T00:30:16.059Z,17.10
2022-12-24T00:34:17.488Z,15.23
2022-12-24T00:38:19.002Z,16.48
2022-12-24T00:42:20.975Z,17.38
2022-12-24T00:46:23.946Z,16.15
2022-12-24T00:50:25.460Z,14.85
2022-12-24T00:54:26.881Z,13.43
2022-12-24T00:58:28.309Z,12.27
2022-12-24T01:02:29.964Z,13.35
2022-12-24T01:06:31.540Z,11.98
2022-12-24T01:10:33.069Z,12.50
2022-12-24T01:14:34.521Z,12.60
2022-12-24T01:18:35.950Z,11.48
2022-12-24T01:22:37.372Z,11.77
2022-12-24T01:26:38.820Z,15.07
2022-12-24T01:30:41.284Z,11.65
2022-12-24T01:34:42.921Z,15.57
2022-12-24T01:38:44.423Z,15.65
2022-12-24T01:43:07.595Z,13.30
2022-12-24T01:47:25.718Z,17.63
2022-12-24T01:51:32.867Z,16.48
2022-12-24T01:55:34.501Z,15.70
2022-12-24T01:59:37.554Z,12.85
2022-12-24T02:03:39.204Z,13.20
2022-12-24T02:07:43.115Z,13.23
2022-12-24T02:11:45.042Z,14.98
2022-12-24T02:16:14.190Z,14.77
2022-12-24T02:20:54.551Z,15.40
2022-12-24T02:25:20.283Z,15.87
2022-12-24T02:29:24.432Z,15.75
2022-12-24T02:33:35.820Z,16.45
2022-12-24T02:37:45.856Z,19.05
2022-12-24T02:42:07.814Z,20.75
2022-12-24T02:46:15.196Z,17.27
2022-12-24T02:50:18.161Z,18.85
2022-12-24T02:54:19.793Z,18.50
2022-12-24T02:59:02.738Z,19.90
2022-12-24T03:03:42.542Z,15.27
2022-12-24T03:07:57.384Z,18.70
2022-12-24T03:12:04.120Z,18.33
2022-12-24T03:16:13.274Z,18.65
2022-12-24T03:20:20.818Z,22.70
2022-12-24T03:24:22.353Z,19.27
2022-12-24T03:28:27.653Z,20.25
2022-12-24T03:32:30.836Z,17.73
2022-12-24T03:36:32.289Z,17.95
2022-12-24T03:40:34.102Z,16.45
2022-12-24T03:44:35.583Z,20.08
2022-12-24T03:48:37.125Z,20.88
2022-12-24T03:52:38.666Z,21.48
2022-12-24T03:56:40.104Z,19.10
2022-12-24T04:00:41.623Z,16.85
2022-12-24T04:04:43.158Z,21.75
2022-12-24T04:08:45.161Z,23.25
2022-12-24T04:12:48.950Z,21.52
2022-12-24T04:16:51.774Z,24.20
2022-12-24T04:20:56.793Z,24.65
2022-12-24T04:24:58.217Z,26.52
2022-12-24T04:28:59.653Z,24.23
2022-12-24T04:33:01.674Z,24.73
2022-12-24T04:37:03.672Z,25.65
2022-12-24T04:41:17.395Z,24.73
2022-12-24T04:45:24.066Z,27.83
2022-12-24T04:49:25.603Z,27.70
2022-12-24T04:53:27.017Z,24.15
2022-12-24T04:57:28.445Z,30.10
2022-12-24T05:01:33.097Z,26.48
2022-12-24T05:05:34.825Z,26.90
2022-12-24T05:09:36.309Z,24.42
2022-12-24T05:13:45.999Z,25.05
2022-12-24T05:17:48.391Z,27.38
2022-12-24T05:22:09.774Z,21.75
2022-12-24T05:26:40.325Z,26.27
2022-12-24T05:30:41.803Z,25.63
2022-12-24T05:34:43.345Z,23.95
2022-12-24T05:38:44.824Z,23.63
2022-12-24T05:42:46.230Z,26.20
2022-12-24T05:46:47.786Z,26.38
2022-12-24T05:50:49.249Z,28.13
2022-12-24T05:54:50.697Z,24.63
2022-12-24T05:58:53.572Z,26.58
2022-12-24T06:02:55.201Z,24.48
2022-12-24T06:06:56.721Z,21.95
2022-12-24T06:11:00.461Z,27.17
2022-12-24T06:15:02.091Z,26.10
2022-12-24T06:19:03.568Z,28.27
2022-12-24T06:23:05.037Z,27.77
2022-12-24T06:27:06.541Z,25.17
2022-12-24T06:31:12.711Z,21.20
2022-12-24T06:35:14.238Z,28.13
2022-12-24T06:39:15.690Z,28.02
2022-12-24T06:43:17.241Z,21.23
2022-12-24T06:47:18.670Z,25.55
2022-12-24T06:51:20.761Z,24.40
2022-12-24T06:55:22.227Z,28.17
2022-12-24T06:59:23.722Z,24.17
2022-12-24T07:03:25.227Z,27.92
2022-12-24T07:07:29.552Z,26.02
2022-12-24T07:11:31.112Z,30.92
2022-12-24T07:15:32.641Z,26.83
2022-12-24T07:19:34.309Z,26.20
2022-12-24T07:23:35.787Z,28.80
2022-12-24T07:27:38.317Z,25.88
2022-12-24T07:31:39.856Z,29.55
2022-12-24T07:35:41.370Z,29.42
2022-12-24T07:39:42.803Z,29.48
2022-12-24T07:43:44.355Z,29.40
2022-12-24T07:47:45.780Z,83.88
2022-12-24T07:51:47.251Z,26.40
2022-12-24T07:55:48.893Z,32.90
2022-12-24T07:59:50.338Z,23.63
2022-12-24T08:03:54.519Z,27.40
2022-12-24T08:07:56.494Z,28.13
2022-12-24T08:11:57.952Z,22.10
2022-12-24T08:15:59.634Z,25.90
2022-12-24T08:20:01.137Z,26.65
2022-12-24T08:24:02.620Z,27.15
2022-12-24T08:28:05.590Z,26.55
2022-12-24T08:32:08.313Z,25.38
2022-12-24T08:36:09.898Z,25.75
2022-12-24T08:40:15.195Z,26.17
2022-12-24T08:44:16.676Z,25.90
2022-12-24T08:48:18.206Z,28.77
2022-12-24T08:52:19.738Z,23.38
2022-12-24T08:56:21.203Z,27.05
2022-12-24T09:00:22.925Z,24.42
2022-12-24T09:04:24.391Z,26.63
2022-12-24T09:08:25.837Z,23.85
2022-12-24T09:12:27.345Z,25.98
2022-12-24T09:16:29.058Z,28.25
2022-12-24T09:20:30.571Z,29.58
2022-12-24T09:24:32.294Z,26.90
2022-12-24T09:28:33.816Z,24.08
2022-12-24T09:32:35.301Z,22.92
2022-12-24T09:36:36.851Z,22.27
2022-12-24T09:40:40.349Z,26.58
2022-12-24T09:44:55.640Z,21.67
2022-12-24T09:49:02.632Z,21.77
2022-12-24T09:53:12.550Z,20.42
2022-12-24T10:01:21.057Z,19.02
2022-12-24T10:05:47.943Z,16.20
2022-12-24T10:09:52.147Z,18.25
2022-12-24T10:14:17.535Z,8.95
2022-12-24T10:18:48.900Z,15.55
2022-12-24T10:23:02.833Z,11.40
2022-12-24T10:27:14.792Z,12.73
2022-12-24T10:31:18.003Z,12.65
2022-12-24T10:35:54.173Z,9.57
2022-12-24T10:39:58.111Z,2.65
2022-12-24T10:44:00.136Z,11.07
2022-12-24T10:48:06.077Z,9.35
2022-12-24T10:52:14.497Z,8.70
2022-12-24T10:56:18.660Z,6.57
2022-12-24T11:00:24.320Z,5.90
2022-12-24T11:04:45.033Z,5.32
2022-12-24T11:08:47.196Z,3.22
2022-12-24T11:13:12.855Z,14.15
2022-12-24T11:17:23.123Z,4.75
2022-12-24T11:21:31.306Z,6.05
2022-12-24T11:25:37.910Z,8.45
2022-12-24T11:29:39.376Z,6.20
2022-12-24T11:33:49.598Z,10.52
2022-12-24T11:37:59.780Z,6.53
2022-12-24T11:42:01.290Z,7.45
2022-12-24T11:46:32.650Z,5.28
2022-12-24T11:50:36.674Z,6.57
2022-12-24T11:54:43.385Z,8.65
2022-12-24T11:58:56.695Z,13.02
2022-12-24T12:03:02.464Z,8.18
2022-12-24T12:07:15.102Z,7.13
2022-12-24T12:11:17.259Z,8.70
2022-12-24T12:15:25.569Z,6.88
2022-12-24T12:19:33.634Z,10.45
2022-12-24T12:23:46.998Z,5.85
2022-12-24T12:27:52.961Z,15.07
2022-12-24T12:32:04.442Z,13.00
2022-12-24T12:36:09.996Z,7.75
2022-12-24T12:40:16.309Z,12.18
2022-12-24T12:44:26.583Z,7.88
2022-12-24T12:48:37.075Z,9.73
2022-12-24T12:52:54.276Z,14.93
2022-12-24T12:57:00.875Z,14.95
2022-12-24T13:01:19.201Z,11.80
2022-12-24T13:05:29.743Z,17.05
2022-12-24T13:09:57.389Z,14.98
2022-12-24T13:14:07.918Z,14.10
2022-12-24T13:18:51.829Z,17.63
2022-12-24T13:22:56.364Z,17.25
2022-12-24T13:27:21.194Z,17.95
2022-12-24T13:31:25.416Z,14.57
2022-12-24T13:35:35.265Z,16.85
2022-12-24T13:40:02.884Z,23.20
2022-12-24T13:44:25.011Z,22.25
2022-12-24T13:48:34.504Z,15.40
2022-12-24T13:52:42.147Z,9.07
2022-12-24T13:56:44.155Z,16.00
2022-12-24T14:00:54.999Z,25.77
2022-12-24T14:05:02.093Z,19.20
2022-12-24T14:09:17.010Z,20.60
2022-12-24T14:13:40.008Z,13.95
2022-12-24T14:17:41.640Z,17.17
2022-12-24T14:21:52.616Z,21.00
2022-12-24T14:25:54.050Z,19.15
2022-12-24T14:30:07.122Z,17.88
2022-12-24T14:34:13.115Z,17.60
2022-12-24T14:38:21.329Z,22.30
2022-12-24T14:42:36.069Z,18.02
2022-12-24T14:47:01.507Z,13.45
2022-12-24T14:51:18.136Z,17.75
2022-12-24T14:55:43.363Z,15.75
2022-12-24T14:59:54.819Z,14.52
2022-12-24T15:04:02.197Z,17.90
2022-12-24T15:08:10.270Z,19.77
2022-12-24T15:12:12.598Z,22.13
2022-12-24T15:16:22.487Z,21.23
2022-12-24T15:24:33.345Z,16.83
2022-12-24T15:28:39.208Z,13.77
2022-12-24T15:32:40.718Z,19.52
2022-12-24T15:36:42.211Z,27.15
2022-12-24T15:40:49.009Z,25.95
2022-12-24T15:45:06.035Z,16.45
2022-12-24T15:49:16.126Z,30.80
2022-12-24T15:53:24.686Z,20.42
2022-12-24T15:57:33.928Z,18.75
2022-12-24T16:01:37.850Z,22.38
2022-12-24T16:05:40.143Z,32.63
2022-12-24T16:09:43.791Z,26.33
2022-12-24T16:13:51.391Z,24.05
2022-12-24T16:17:53.277Z,20.77
2022-12-24T16:21:58.254Z,18.15
2022-12-24T16:25:59.807Z,23.20
2022-12-24T16:30:01.299Z,25.27
2022-12-24T16:34:03.649Z,19.23
2022-12-24T16:38:05.245Z,22.42
2022-12-24T16:42:25.365Z,18.52
2022-12-24T16:46:26.936Z,21.45
2022-12-24T16:50:28.505Z,20.83
2022-12-24T16:54:30.143Z,29.67
2022-12-24T16:58:31.800Z,14.85
2022-12-24T17:02:33.376Z,16.15
2022-12-24T17:06:35.043Z,21.95
2022-12-24T17:10:36.976Z,30.10
2022-12-24T17:14:39.114Z,40.35
2022-12-24T17:18:40.640Z,38.67
2022-12-24T17:22:42.162Z,31.42
2022-12-24T17:26:44.185Z,32.25
2022-12-24T17:30:45.794Z,34.30
2022-12-24T17:34:47.330Z,32.33
2022-12-24T17:38:49.069Z,24.30
2022-12-24T17:42:50.585Z,29.08
2022-12-24T17:46:52.285Z,20.48
2022-12-24T17:50:53.876Z,25.90
2022-12-24T17:54:55.431Z,20.30
2022-12-24T17:58:57.807Z,20.25
2022-12-24T18:02:59.513Z,21.50
2022-12-24T18:07:03.154Z,9.65
2022-12-24T18:11:16.701Z,19.33
2022-12-24T18:15:20.212Z,19.77
2022-12-24T18:19:21.703Z,13.57
2022-12-24T18:23:23.172Z,11.32
2022-12-24T18:27:24.638Z,17.95
2022-12-24T18:31:26.962Z,13.55
2022-12-24T18:35:28.779Z,13.63
2022-12-24T18:39:30.239Z,13.15
2022-12-24T18:43:31.813Z,8.00
2022-12-24T18:47:33.227Z,13.00
2022-12-24T18:51:36.164Z,15.23
2022-12-24T18:55:38.227Z,10.32
2022-12-24T18:59:39.716Z,15.32
2022-12-24T19:03:41.219Z,14.38
2022-12-24T19:07:42.720Z,21.05
2022-12-24T19:11:44.207Z,14.95
2022-12-24T19:15:45.753Z,9.30
2022-12-24T19:19:47.265Z,12.18
2022-12-24T19:23:49.125Z,16.83
2022-12-24T19:27:50.589Z,14.63
2022-12-24T19:31:52.270Z,14.35
2022-12-24T19:35:53.980Z,12.15
2022-12-24T19:39:55.455Z,13.38
2022-12-24T19:44:01.350Z,13.60
2022-12-24T19:48:03.290Z,9.65
2022-12-24T19:52:04.861Z,7.15
2022-12-24T19:56:08.574Z,10.60
2022-12-24T20:00:10.961Z,8.68
2022-12-24T20:04:12.442Z,9.90
2022-12-24T20:08:13.972Z,11.68
2022-12-24T20:12:15.440Z,8.10
2022-12-24T20:16:21.562Z,10.80
2022-12-24T20:20:23.148Z,7.10
2022-12-24T20:24:24.629Z,10.25
2022-12-24T20:28:30.947Z,9.77
2022-12-24T20:32:33.632Z,9.57
2022-12-24T20:36:37.161Z,5.60
2022-12-24T20:40:43.431Z,5.93
2022-12-24T20:44:44.879Z,6.88
2022-12-24T20:48:46.935Z,7.18
2022-12-24T20:52:48.352Z,8.95
2022-12-24T20:56:58.271Z,14.38
2022-12-24T21:01:00.482Z,7.82
2022-12-24T21:05:02.956Z,6.95
2022-12-24T21:09:05.986Z,10.65
2022-12-24T21:13:07.893Z,7.25
2022-12-24T21:17:15.198Z,6.18
2022-12-24T21:21:17.658Z,8.93
2022-12-24T21:25:19.200Z,4.85
2022-12-24T21:29:20.674Z,4.38
2022-12-24T21:33:22.498Z,7.03
2022-12-24T21:37:23.981Z,6.95
2022-12-24T21:41:26.141Z,8.68
2022-12-24T21:45:27.683Z,3.47
2022-12-24T21:49:47.775Z,6.93
2022-12-24T21:54:08.123Z,7.32
2022-12-24T22:02:13.821Z,13.70
2022-12-24T22:06:35.794Z,16.42
2022-12-24T22:10:56.992Z,10.98
2022-12-24T22:14:59.193Z,6.63
2022-12-24T22:19:00.641Z,6.70
2022-12-24T22:23:02.195Z,7.65
2022-12-24T22:27:03.639Z,10.20
2022-12-24T22:31:05.355Z,12.35
2022-12-24T22:35:07.050Z,12.73
2022-12-24T22:39:08.579Z,7.32
2022-12-24T22:43:10.111Z,8.00
2022-12-24T22:47:11.584Z,18.98
2022-12-24T22:51:19.346Z,12.30
2022-12-24T22:55:21.500Z,17.17
2022-12-24T22:59:22.968Z,11.23
2022-12-24T23:03:25.185Z,18.00
2022-12-24T23:07:26.778Z,9.90
2022-12-24T23:11:28.338Z,16.20
2022-12-24T23:15:29.896Z,14.23
2022-12-24T23:19:33.369Z,11.15
2022-12-24T23:23:37.065Z,12.73
2022-12-24T23:27:38.740Z,16.92
2022-12-24T23:31:40.248Z,15.15
2022-12-24T23:35:41.763Z,15.07
2022-12-24T23:39:43.175Z,12.95
2022-12-24T23:43:45.471Z,13.93
2022-12-24T23:47:46.907Z,11.55
2022-12-24T23:51:48.388Z,12.52
2022-12-24T23:55:49.915Z,13.90
2022-12-24T23:59:51.397Z,16.88
